sensor_id;sensor_type;location;lat;lon;timestamp;temperature;humidity
2621;DHT22;1320;48.128;11.592;2024-03-02T08:28:13;13.80;99.90
2621;DHT22;1320;48.128;11.592;2024-03-02T08:30:39;14.00;99.90
2621;DHT22;1320;48.128;11.592;2024-03-02T08:45:22;15.20;99.90
2621;DHT22;1320;48.128;11.592;2024-03-02T08:47:48;15.60;99.90
2621;DHT22;1320;48.128;11.592;2024-03-02T08:50:14;15.70;99.90
2621;DHT22;1320;48.128;11.592;2024-03-02T08:52:39;15.80;99.90
2621;DHT22;1320;48.128;11.592;2024-03-02T08:55:06;15.80;99.90
2621;DHT22;1320;48.128;11.592;2024-03-02T08:57:32;16.00;99.90
2621;DHT22;1320;48.128;11.592;2024-03-02T09:00:02;16.00;99.90
2621;DHT22;1320;48.128;11.592;2024-03-02T09:02:28;16.00;99.90
2621;DHT22;1320;48.128;11.592;2024-03-02T09:04:54;16.00;99.90
2621;DHT22;1320;48.128;11.592;2024-03-02T09:07:19;15.90;99.90
2621;DHT22;1320;48.128;11.592;2024-03-02T09:09:45;15.70;99.90
2621;DHT22;1320;48.128;11.592;2024-03-02T09:12:11;15.70;99.90
2621;DHT22;1320;48.128;11.592;2024-03-02T09:14:36;15.70;99.90
2621;DHT22;1320;48.128;11.592;2024-03-02T09:17:03;15.70;99.90
2621;DHT22;1320;48.128;11.592;2024-03-02T09:19:29;15.50;99.90
2621;DHT22;1320;48.128;11.592;2024-03-02T09:21:54;15.50;99.90
2621;DHT22;1320;48.128;11.592;2024-03-02T09:24:22;15.50;99.90
2621;DHT22;1320;48.128;11.592;2024-03-02T09:26:48;15.50;99.90
2621;DHT22;1320;48.128;11.592;2024-03-02T09:29:14;15.60;99.90
2621;DHT22;1320;48.128;11.592;2024-03-02T09:38:59;16.60;99.90
2621;DHT22;1320;48.128;11.592;2024-03-02T09:51:14;16.60;99.90
2621;DHT22;1320;48.128;11.592;2024-03-02T09:53:40;16.80;99.90
2621;DHT22;1320;48.128;11.592;2024-03-02T09:56:06;17.00;99.90
2621;DHT22;1320;48.128;11.592;2024-03-02T09:58:33;17.10;99.90
2621;DHT22;1320;48.128;11.592;2024-03-02T10:00:58;17.20;99.90
2621;DHT22;1320;48.128;11.592;2024-03-02T10:03:24;17.30;99.90
2621;DHT22;1320;48.128;11.592;2024-03-02T10:05:50;17.30;99.90
2621;DHT22;1320;48.128;11.592;2024-03-02T10:08:15;17.10;99.90
2621;DHT22;1320;48.128;11.592;2024-03-02T10:10:41;17.10;99.90
2621;DHT22;1320;48.128;11.592;2024-03-02T10:13:10;17.20;99.90
2621;DHT22;1320;48.128;11.592;2024-03-02T10:15:37;17.40;99.90
2621;DHT22;1320;48.128;11.592;2024-03-02T10:18:04;17.90;99.90
2621;DHT22;1320;48.128;11.592;2024-03-02T10:22:56;18.10;99.90
2621;DHT22;1320;48.128;11.592;2024-03-02T10:25:34;18.20;99.90
2621;DHT22;1320;48.128;11.592;2024-03-02T10:28:00;18.50;99.90
2621;DHT22;1320;48.128;11.592;2024-03-02T10:30:27;18.60;99.90
2621;DHT22;1320;48.128;11.592;2024-03-02T10:32:54;18.60;99.90
2621;DHT22;1320;48.128;11.592;2024-03-02T10:35:21;18.50;99.90
2621;DHT22;1320;48.128;11.592;2024-03-02T10:37:48;18.40;99.90
2621;DHT22;1320;48.128;11.592;2024-03-02T10:40:14;18.20;99.90
2621;DHT22;1320;48.128;11.592;2024-03-02T10:42:41;18.00;99.90
2621;DHT22;1320;48.128;11.592;2024-03-02T10:45:09;18.00;99.90
2621;DHT22;1320;48.128;11.592;2024-03-02T10:47:37;17.90;99.90
2621;DHT22;1320;48.128;11.592;2024-03-02T10:50:04;17.90;99.90
2621;DHT22;1320;48.128;11.592;2024-03-02T10:52:37;17.90;99.90
2621;DHT22;1320;48.128;11.592;2024-03-02T10:55:05;17.90;99.90
2621;DHT22;1320;48.128;11.592;2024-03-02T10:57:53;18.00;99.90
2621;DHT22;1320;48.128;11.592;2024-03-02T11:00:20;17.90;99.90
2621;DHT22;1320;48.128;11.592;2024-03-02T11:02:56;17.90;99.90
2621;DHT22;1320;48.128;11.592;2024-03-02T11:05:27;17.90;99.90
2621;DHT22;1320;48.128;11.592;2024-03-02T11:08:00;18.00;99.90
2621;DHT22;1320;48.128;11.592;2024-03-02T11:10:29;18.10;99.90
2621;DHT22;1320;48.128;11.592;2024-03-02T11:13:01;18.10;99.90
2621;DHT22;1320;48.128;11.592;2024-03-02T11:15:27;18.10;99.90
2621;DHT22;1320;48.128;11.592;2024-03-02T11:17:53;18.20;99.90
2621;DHT22;1320;48.128;11.592;2024-03-02T11:20:20;18.30;99.90
2621;DHT22;1320;48.128;11.592;2024-03-02T11:22:46;18.50;99.90
2621;DHT22;1320;48.128;11.592;2024-03-02T11:25:25;18.50;99.90
2621;DHT22;1320;48.128;11.592;2024-03-02T11:33:02;18.50;99.90
2621;DHT22;1320;48.128;11.592;2024-03-02T11:35:33;18.50;99.90
2621;DHT22;1320;48.128;11.592;2024-03-02T11:37:59;18.50;99.90
2621;DHT22;1320;48.128;11.592;2024-03-02T11:40:25;18.50;99.90
2621;DHT22;1320;48.128;11.592;2024-03-02T11:42:51;18.60;99.90
2621;DHT22;1320;48.128;11.592;2024-03-02T11:45:22;18.80;99.90
2621;DHT22;1320;48.128;11.592;2024-03-02T11:47:54;18.80;99.90
2621;DHT22;1320;48.128;11.592;2024-03-02T11:50:29;18.70;99.90
2621;DHT22;1320;48.128;11.592;2024-03-02T11:52:56;18.70;99.90
2621;DHT22;1320;48.128;11.592;2024-03-02T11:55:23;18.80;99.90
2621;DHT22;1320;48.128;11.592;2024-03-02T11:57:52;18.80;99.90
2621;DHT22;1320;48.128;11.592;2024-03-02T12:00:19;18.90;99.90
2621;DHT22;1320;48.128;11.592;2024-03-02T12:02:46;18.90;99.90
2621;DHT22;1320;48.128;11.592;2024-03-02T12:05:16;18.90;99.90
2621;DHT22;1320;48.128;11.592;2024-03-02T12:07:42;18.80;99.90
2621;DHT22;1320;48.128;11.592;2024-03-02T12:10:09;18.90;99.90
2621;DHT22;1320;48.128;11.592;2024-03-02T12:12:34;19.00;99.90
2621;DHT22;1320;48.128;11.592;2024-03-02T12:34:31;19.20;99.90
2621;DHT22;1320;48.128;11.592;2024-03-02T12:36:57;19.30;99.90
2621;DHT22;1320;48.128;11.592;2024-03-02T12:39:22;19.30;99.90
2621;DHT22;1320;48.128;11.592;2024-03-02T12:41:51;19.30;99.90
2621;DHT22;1320;48.128;11.592;2024-03-02T12:44:19;19.30;99.90
2621;DHT22;1320;48.128;11.592;2024-03-02T12:46:46;19.30;99.90
2621;DHT22;1320;48.128;11.592;2024-03-02T12:49:13;19.30;99.90
2621;DHT22;1320;48.128;11.592;2024-03-02T12:51:42;19.30;99.90
2621;DHT22;1320;48.128;11.592;2024-03-02T12:54:08;19.30;99.90
2621;DHT22;1320;48.128;11.592;2024-03-02T12:56:35;19.20;99.90
2621;DHT22;1320;48.128;11.592;2024-03-02T12:59:01;19.20;99.90
2621;DHT22;1320;48.128;11.592;2024-03-02T13:01:27;19.30;99.90
2621;DHT22;1320;48.128;11.592;2024-03-02T13:40:49;19.70;99.90
2621;DHT22;1320;48.128;11.592;2024-03-02T13:43:18;19.70;99.90
2621;DHT22;1320;48.128;11.592;2024-03-02T13:48:10;19.80;99.90
2621;DHT22;1320;48.128;11.592;2024-03-02T13:50:36;19.80;99.90
2621;DHT22;1320;48.128;11.592;2024-03-02T13:53:01;19.70;99.90
2621;DHT22;1320;48.128;11.592;2024-03-02T13:55:28;19.60;99.90
2621;DHT22;1320;48.128;11.592;2024-03-02T13:57:54;19.70;99.90
2621;DHT22;1320;48.128;11.592;2024-03-02T14:00:20;19.60;99.90
2621;DHT22;1320;48.128;11.592;2024-03-02T14:02:46;19.70;99.90
2621;DHT22;1320;48.128;11.592;2024-03-02T14:05:12;19.80;99.90
2621;DHT22;1320;48.128;11.592;2024-03-02T14:07:40;19.90;99.90
2621;DHT22;1320;48.128;11.592;2024-03-02T14:10:06;19.90;99.90
2621;DHT22;1320;48.128;11.592;2024-03-02T14:12:31;19.80;99.90
2621;DHT22;1320;48.128;11.592;2024-03-02T14:14:57;19.90;99.90
2621;DHT22;1320;48.128;11.592;2024-03-02T14:17:29;20.00;99.90
2621;DHT22;1320;48.128;11.592;2024-03-02T14:19:57;20.00;99.90
2621;DHT22;1320;48.128;11.592;2024-03-02T14:22:24;20.20;99.90
2621;DHT22;1320;48.128;11.592;2024-03-02T14:24:50;20.40;99.90
2621;DHT22;1320;48.128;11.592;2024-03-02T14:27:16;20.50;99.90
2621;DHT22;1320;48.128;11.592;2024-03-02T14:29:43;20.60;99.90
2621;DHT22;1320;48.128;11.592;2024-03-02T14:32:09;20.60;99.90
2621;DHT22;1320;48.128;11.592;2024-03-02T14:34:34;20.70;99.90
2621;DHT22;1320;48.128;11.592;2024-03-02T14:37:00;20.70;99.90
2621;DHT22;1320;48.128;11.592;2024-03-02T14:39:27;20.70;99.90
2621;DHT22;1320;48.128;11.592;2024-03-02T14:41:53;20.80;99.90
2621;DHT22;1320;48.128;11.592;2024-03-02T14:44:20;20.80;99.90
2621;DHT22;1320;48.128;11.592;2024-03-02T14:46:49;20.80;99.90
2621;DHT22;1320;48.128;11.592;2024-03-02T14:49:16;20.90;99.90
2621;DHT22;1320;48.128;11.592;2024-03-02T14:51:41;20.90;99.90
2621;DHT22;1320;48.128;11.592;2024-03-02T14:54:07;20.90;99.90
2621;DHT22;1320;48.128;11.592;2024-03-02T14:56:32;21.00;99.90
2621;DHT22;1320;48.128;11.592;2024-03-02T14:58:58;21.10;99.90
2621;DHT22;1320;48.128;11.592;2024-03-02T15:01:24;21.30;99.90
2621;DHT22;1320;48.128;11.592;2024-03-02T15:03:52;21.40;99.90
2621;DHT22;1320;48.128;11.592;2024-03-02T15:06:18;21.50;99.90
2621;DHT22;1320;48.128;11.592;2024-03-02T15:08:44;21.60;99.90
2621;DHT22;1320;48.128;11.592;2024-03-02T15:11:13;21.60;99.90
2621;DHT22;1320;48.128;11.592;2024-03-02T15:13:39;21.60;99.90
2621;DHT22;1320;48.128;11.592;2024-03-02T15:16:05;21.60;99.90
2621;DHT22;1320;48.128;11.592;2024-03-02T15:18:31;21.60;99.90
2621;DHT22;1320;48.128;11.592;2024-03-02T15:20:57;21.60;99.90
2621;DHT22;1320;48.128;11.592;2024-03-02T15:23:22;21.60;99.90
2621;DHT22;1320;48.128;11.592;2024-03-02T15:25:48;21.50;99.90
2621;DHT22;1320;48.128;11.592;2024-03-02T15:28:14;21.50;99.90
2621;DHT22;1320;48.128;11.592;2024-03-02T15:30:39;21.50;99.90
2621;DHT22;1320;48.128;11.592;2024-03-02T15:33:05;21.40;99.90
2621;DHT22;1320;48.128;11.592;2024-03-02T15:35:31;21.30;99.90
2621;DHT22;1320;48.128;11.592;2024-03-02T15:37:56;20.90;99.90
2621;DHT22;1320;48.128;11.592;2024-03-02T15:40:22;20.40;99.90
2621;DHT22;1320;48.128;11.592;2024-03-02T15:42:48;19.90;99.90
2621;DHT22;1320;48.128;11.592;2024-03-02T15:45:14;19.50;99.90
2621;DHT22;1320;48.128;11.592;2024-03-02T15:47:40;19.10;99.90
2621;DHT22;1320;48.128;11.592;2024-03-02T15:50:07;18.60;99.90
2621;DHT22;1320;48.128;11.592;2024-03-02T15:52:33;18.20;99.90
2621;DHT22;1320;48.128;11.592;2024-03-02T15:54:58;17.80;99.90
2621;DHT22;1320;48.128;11.592;2024-03-02T15:57:24;17.50;99.90
2621;DHT22;1320;48.128;11.592;2024-03-02T15:59:50;17.20;99.90
2621;DHT22;1320;48.128;11.592;2024-03-02T16:02:16;17.00;99.90
2621;DHT22;1320;48.128;11.592;2024-03-02T16:04:42;16.90;99.90
2621;DHT22;1320;48.128;11.592;2024-03-02T16:09:34;16.60;99.90
2621;DHT22;1320;48.128;11.592;2024-03-02T16:12:00;16.40;99.90
2621;DHT22;1320;48.128;11.592;2024-03-02T16:14:25;16.30;99.90
2621;DHT22;1320;48.128;11.592;2024-03-02T16:16:51;16.30;99.90
2621;DHT22;1320;48.128;11.592;2024-03-02T16:19:17;16.20;99.90
2621;DHT22;1320;48.128;11.592;2024-03-02T16:21:43;16.10;99.90
2621;DHT22;1320;48.128;11.592;2024-03-02T16:24:08;16.00;99.90
2621;DHT22;1320;48.128;11.592;2024-03-02T16:26:34;15.90;99.90
2621;DHT22;1320;48.128;11.592;2024-03-02T16:29:00;15.80;99.90
2621;DHT22;1320;48.128;11.592;2024-03-02T16:31:25;15.70;99.90
2621;DHT22;1320;48.128;11.592;2024-03-02T16:33:51;15.60;99.90
2621;DHT22;1320;48.128;11.592;2024-03-02T16:36:18;15.50;99.90
2621;DHT22;1320;48.128;11.592;2024-03-02T16:38:43;15.40;99.90
2621;DHT22;1320;48.128;11.592;2024-03-02T16:41:09;15.30;99.90
2621;DHT22;1320;48.128;11.592;2024-03-02T18:11:20;12.90;99.90
2621;DHT22;1320;48.128;11.592;2024-03-02T18:13:49;12.80;99.90
2621;DHT22;1320;48.128;11.592;2024-03-02T18:16:15;12.70;99.90
2621;DHT22;1320;48.128;11.592;2024-03-02T18:18:41;12.60;99.90
2621;DHT22;1320;48.128;11.592;2024-03-02T18:35:45;12.30;99.90
2621;DHT22;1320;48.128;11.592;2024-03-02T18:38:11;12.30;99.90
2621;DHT22;1320;48.128;11.592;2024-03-02T18:40:36;12.30;99.90
2621;DHT22;1320;48.128;11.592;2024-03-02T18:52:47;12.10;99.90
2621;DHT22;1320;48.128;11.592;2024-03-02T19:07:31;11.90;99.90
